sensor_id;sensor_type;location;lat;lon;timestamp;temperature;humidity
15997;DHT22;8103;51.340;12.326;2024-03-23T00:53:38;11.10;99.90
15997;DHT22;8103;51.340;12.326;2024-03-23T00:56:04;11.00;99.90
15997;DHT22;8103;51.340;12.326;2024-03-23T00:58:30;11.00;99.90
15997;DHT22;8103;51.340;12.326;2024-03-23T01:00:56;11.00;99.90
15997;DHT22;8103;51.340;12.326;2024-03-23T01:03:22;11.00;99.90
15997;DHT22;8103;51.340;12.326;2024-03-23T01:05:47;11.00;99.90
15997;DHT22;8103;51.340;12.326;2024-03-23T01:08:14;11.00;99.90
15997;DHT22;8103;51.340;12.326;2024-03-23T01:10:40;11.00;99.90
15997;DHT22;8103;51.340;12.326;2024-03-23T01:13:06;11.00;99.90
15997;DHT22;8103;51.340;12.326;2024-03-23T01:15:32;11.00;99.90
15997;DHT22;8103;51.340;12.326;2024-03-23T01:17:58;11.00;99.90
15997;DHT22;8103;51.340;12.326;2024-03-23T01:20:23;10.90;99.90
15997;DHT22;8103;51.340;12.326;2024-03-23T01:22:49;10.90;99.90
15997;DHT22;8103;51.340;12.326;2024-03-23T01:25:15;10.80;99.90
15997;DHT22;8103;51.340;12.326;2024-03-23T01:27:40;10.80;99.90
15997;DHT22;8103;51.340;12.326;2024-03-23T01:30:06;10.70;99.90
15997;DHT22;8103;51.340;12.326;2024-03-23T01:32:33;10.70;99.90
15997;DHT22;8103;51.340;12.326;2024-03-23T01:34:58;10.60;99.90
15997;DHT22;8103;51.340;12.326;2024-03-23T01:37:24;10.60;99.90
15997;DHT22;8103;51.340;12.326;2024-03-23T01:39:50;10.50;99.90
15997;DHT22;8103;51.340;12.326;2024-03-23T01:42:16;10.50;99.90
15997;DHT22;8103;51.340;12.326;2024-03-23T01:44:42;10.40;99.90
15997;DHT22;8103;51.340;12.326;2024-03-23T01:47:08;10.40;99.90
15997;DHT22;8103;51.340;12.326;2024-03-23T01:49:34;10.40;99.90
15997;DHT22;8103;51.340;12.326;2024-03-23T01:52:00;10.30;99.90
15997;DHT22;8103;51.340;12.326;2024-03-23T01:54:26;10.30;99.90
15997;DHT22;8103;51.340;12.326;2024-03-23T01:56:53;10.30;99.90
15997;DHT22;8103;51.340;12.326;2024-03-23T01:59:19;10.20;99.90
15997;DHT22;8103;51.340;12.326;2024-03-23T02:01:45;10.20;99.90
15997;DHT22;8103;51.340;12.326;2024-03-23T02:04:11;10.20;99.90
15997;DHT22;8103;51.340;12.326;2024-03-23T02:06:37;10.10;99.90
15997;DHT22;8103;51.340;12.326;2024-03-23T02:09:03;10.10;99.90
15997;DHT22;8103;51.340;12.326;2024-03-23T02:11:29;10.10;99.90
15997;DHT22;8103;51.340;12.326;2024-03-23T02:13:55;10.10;99.90
15997;DHT22;8103;51.340;12.326;2024-03-23T02:16:20;10.10;99.90
15997;DHT22;8103;51.340;12.326;2024-03-23T02:18:46;10.10;99.90
15997;DHT22;8103;51.340;12.326;2024-03-23T02:21:12;10.10;99.90
15997;DHT22;8103;51.340;12.326;2024-03-23T02:23:37;10.00;99.90
15997;DHT22;8103;51.340;12.326;2024-03-23T02:26:03;10.00;99.90
15997;DHT22;8103;51.340;12.326;2024-03-23T02:28:29;10.00;99.90
15997;DHT22;8103;51.340;12.326;2024-03-23T02:30:55;10.00;99.90
15997;DHT22;8103;51.340;12.326;2024-03-23T02:33:20;10.10;99.90
15997;DHT22;8103;51.340;12.326;2024-03-23T02:35:47;10.10;99.90
15997;DHT22;8103;51.340;12.326;2024-03-23T02:38:13;10.10;99.90
15997;DHT22;8103;51.340;12.326;2024-03-23T02:40:38;10.00;99.90
15997;DHT22;8103;51.340;12.326;2024-03-23T02:43:04;10.10;99.90
15997;DHT22;8103;51.340;12.326;2024-03-23T02:45:30;10.00;99.90
15997;DHT22;8103;51.340;12.326;2024-03-23T02:47:56;10.10;99.90
15997;DHT22;8103;51.340;12.326;2024-03-23T02:50:22;10.00;99.90
15997;DHT22;8103;51.340;12.326;2024-03-23T02:52:48;10.10;99.90
15997;DHT22;8103;51.340;12.326;2024-03-23T02:55:14;10.10;99.90
15997;DHT22;8103;51.340;12.326;2024-03-23T02:57:40;10.00;99.90
15997;DHT22;8103;51.340;12.326;2024-03-23T03:00:06;10.10;99.90
15997;DHT22;8103;51.340;12.326;2024-03-23T03:02:33;10.10;99.90
15997;DHT22;8103;51.340;12.326;2024-03-23T03:04:59;10.00;99.90
15997;DHT22;8103;51.340;12.326;2024-03-23T03:07:24;10.00;99.90
15997;DHT22;8103;51.340;12.326;2024-03-23T03:09:51;10.00;99.90
15997;DHT22;8103;51.340;12.326;2024-03-23T03:12:16;10.00;99.90
15997;DHT22;8103;51.340;12.326;2024-03-23T03:14:42;9.90;99.90
15997;DHT22;8103;51.340;12.326;2024-03-23T03:17:08;9.90;99.90
15997;DHT22;8103;51.340;12.326;2024-03-23T03:19:34;10.00;99.90
15997;DHT22;8103;51.340;12.326;2024-03-23T03:22:00;9.90;99.90
15997;DHT22;8103;51.340;12.326;2024-03-23T03:24:25;9.90;99.90
15997;DHT22;8103;51.340;12.326;2024-03-23T03:26:51;9.90;99.90
15997;DHT22;8103;51.340;12.326;2024-03-23T03:29:17;9.90;99.90
15997;DHT22;8103;51.340;12.326;2024-03-23T03:31:43;10.00;99.90
15997;DHT22;8103;51.340;12.326;2024-03-23T03:34:11;10.00;99.90
15997;DHT22;8103;51.340;12.326;2024-03-23T03:36:37;10.00;99.90
15997;DHT22;8103;51.340;12.326;2024-03-23T03:39:03;10.00;99.90
15997;DHT22;8103;51.340;12.326;2024-03-23T03:41:30;10.00;99.90
15997;DHT22;8103;51.340;12.326;2024-03-23T03:43:56;10.00;99.90
15997;DHT22;8103;51.340;12.326;2024-03-23T03:46:22;9.90;99.90
15997;DHT22;8103;51.340;12.326;2024-03-23T03:48:48;9.90;99.90
15997;DHT22;8103;51.340;12.326;2024-03-23T03:51:14;9.90;99.90
15997;DHT22;8103;51.340;12.326;2024-03-23T03:53:40;10.00;99.90
15997;DHT22;8103;51.340;12.326;2024-03-23T03:56:05;9.90;99.90
15997;DHT22;8103;51.340;12.326;2024-03-23T03:58:32;9.90;99.90
15997;DHT22;8103;51.340;12.326;2024-03-23T04:00:58;9.90;99.90
15997;DHT22;8103;51.340;12.326;2024-03-23T04:03:23;9.90;99.90
15997;DHT22;8103;51.340;12.326;2024-03-23T04:05:55;9.90;99.90
15997;DHT22;8103;51.340;12.326;2024-03-23T04:08:21;9.90;99.90
15997;DHT22;8103;51.340;12.326;2024-03-23T04:10:47;10.00;99.90
15997;DHT22;8103;51.340;12.326;2024-03-23T04:13:13;10.00;99.90
15997;DHT22;8103;51.340;12.326;2024-03-23T04:15:39;10.00;99.90
15997;DHT22;8103;51.340;12.326;2024-03-23T04:18:05;10.00;99.90
15997;DHT22;8103;51.340;12.326;2024-03-23T04:20:31;10.00;99.90
15997;DHT22;8103;51.340;12.326;2024-03-23T04:23:01;10.00;99.90
15997;DHT22;8103;51.340;12.326;2024-03-23T04:25:27;10.00;99.90
15997;DHT22;8103;51.340;12.326;2024-03-23T04:27:52;10.00;99.90
15997;DHT22;8103;51.340;12.326;2024-03-23T04:30:18;10.00;99.90
15997;DHT22;8103;51.340;12.326;2024-03-23T04:32:44;9.90;99.90
15997;DHT22;8103;51.340;12.326;2024-03-23T04:35:10;10.00;99.90
15997;DHT22;8103;51.340;12.326;2024-03-23T04:37:39;9.90;99.90
15997;DHT22;8103;51.340;12.326;2024-03-23T04:40:08;9.90;99.90
15997;DHT22;8103;51.340;12.326;2024-03-23T04:42:34;9.90;99.90
15997;DHT22;8103;51.340;12.326;2024-03-23T04:45:00;9.90;99.90
15997;DHT22;8103;51.340;12.326;2024-03-23T04:47:26;9.90;99.90
15997;DHT22;8103;51.340;12.326;2024-03-23T04:49:52;9.90;99.90
15997;DHT22;8103;51.340;12.326;2024-03-23T04:52:18;9.90;99.90
15997;DHT22;8103;51.340;12.326;2024-03-23T04:54:44;9.80;99.90
15997;DHT22;8103;51.340;12.326;2024-03-23T04:57:11;9.90;99.90
15997;DHT22;8103;51.340;12.326;2024-03-23T04:59:37;9.80;99.90
15997;DHT22;8103;51.340;12.326;2024-03-23T05:02:02;9.90;99.90
15997;DHT22;8103;51.340;12.326;2024-03-23T05:04:28;9.80;99.90
15997;DHT22;8103;51.340;12.326;2024-03-23T05:06:54;9.90;99.90
15997;DHT22;8103;51.340;12.326;2024-03-23T05:09:20;9.90;99.90
15997;DHT22;8103;51.340;12.326;2024-03-23T05:11:47;9.80;99.90
15997;DHT22;8103;51.340;12.326;2024-03-23T05:18:00;9.80;99.90
15997;DHT22;8103;51.340;12.326;2024-03-23T05:20:26;9.80;99.90
15997;DHT22;8103;51.340;12.326;2024-03-23T05:22:51;9.80;99.90
15997;DHT22;8103;51.340;12.326;2024-03-23T05:25:17;9.80;99.90
15997;DHT22;8103;51.340;12.326;2024-03-23T05:27:43;9.70;99.90
15997;DHT22;8103;51.340;12.326;2024-03-23T05:30:09;9.80;99.90
15997;DHT22;8103;51.340;12.326;2024-03-23T05:32:35;9.80;99.90
15997;DHT22;8103;51.340;12.326;2024-03-23T05:35:00;9.80;99.90
15997;DHT22;8103;51.340;12.326;2024-03-23T05:37:26;9.80;99.90
15997;DHT22;8103;51.340;12.326;2024-03-23T05:39:52;9.80;99.90
15997;DHT22;8103;51.340;12.326;2024-03-23T05:42:18;9.80;99.90
15997;DHT22;8103;51.340;12.326;2024-03-23T05:44:45;9.80;99.90
15997;DHT22;8103;51.340;12.326;2024-03-23T05:47:11;9.80;99.90
15997;DHT22;8103;51.340;12.326;2024-03-23T05:49:38;9.80;99.90
15997;DHT22;8103;51.340;12.326;2024-03-23T05:52:04;9.70;99.90
15997;DHT22;8103;51.340;12.326;2024-03-23T05:54:30;9.70;99.90
15997;DHT22;8103;51.340;12.326;2024-03-23T05:56:56;9.70;99.90
15997;DHT22;8103;51.340;12.326;2024-03-23T05:59:21;9.60;99.90
15997;DHT22;8103;51.340;12.326;2024-03-23T06:01:47;9.60;99.90
15997;DHT22;8103;51.340;12.326;2024-03-23T06:04:13;9.60;99.90
15997;DHT22;8103;51.340;12.326;2024-03-23T06:06:42;9.60;99.90
15997;DHT22;8103;51.340;12.326;2024-03-23T06:09:07;9.60;99.90
15997;DHT22;8103;51.340;12.326;2024-03-23T06:11:33;9.60;99.90
15997;DHT22;8103;51.340;12.326;2024-03-23T06:13:59;9.70;99.90
15997;DHT22;8103;51.340;12.326;2024-03-23T06:16:24;9.70;99.90
15997;DHT22;8103;51.340;12.326;2024-03-23T06:18:51;9.70;99.90
15997;DHT22;8103;51.340;12.326;2024-03-23T06:21:16;9.70;99.90
15997;DHT22;8103;51.340;12.326;2024-03-23T06:23:42;9.70;99.90
15997;DHT22;8103;51.340;12.326;2024-03-23T06:26:08;9.60;99.90
15997;DHT22;8103;51.340;12.326;2024-03-23T06:28:34;9.60;99.90
15997;DHT22;8103;51.340;12.326;2024-03-23T06:31:00;9.60;99.90
15997;DHT22;8103;51.340;12.326;2024-03-23T06:33:25;9.70;99.90
15997;DHT22;8103;51.340;12.326;2024-03-23T06:35:51;9.70;99.90
15997;DHT22;8103;51.340;12.326;2024-03-23T06:38:18;9.70;99.90
15997;DHT22;8103;51.340;12.326;2024-03-23T06:40:44;9.70;99.90
15997;DHT22;8103;51.340;12.326;2024-03-23T06:43:13;9.70;99.90
15997;DHT22;8103;51.340;12.326;2024-03-23T06:45:39;9.70;99.90
15997;DHT22;8103;51.340;12.326;2024-03-23T06:48:05;9.80;99.90
15997;DHT22;8103;51.340;12.326;2024-03-23T06:50:33;9.80;99.90
15997;DHT22;8103;51.340;12.326;2024-03-23T06:52:59;9.80;99.90
15997;DHT22;8103;51.340;12.326;2024-03-23T06:55:28;9.70;99.90
15997;DHT22;8103;51.340;12.326;2024-03-23T06:57:53;9.70;99.90
15997;DHT22;8103;51.340;12.326;2024-03-23T07:00:19;9.70;99.90
15997;DHT22;8103;51.340;12.326;2024-03-23T07:02:45;9.60;99.90
15997;DHT22;8103;51.340;12.326;2024-03-23T07:05:11;9.60;99.90
15997;DHT22;8103;51.340;12.326;2024-03-23T07:07:38;9.50;99.90
15997;DHT22;8103;51.340;12.326;2024-03-23T07:10:05;9.40;99.90
15997;DHT22;8103;51.340;12.326;2024-03-23T07:12:31;9.40;99.90
15997;DHT22;8103;51.340;12.326;2024-03-23T07:14:57;9.40;99.90
15997;DHT22;8103;51.340;12.326;2024-03-23T07:17:28;9.30;99.90
15997;DHT22;8103;51.340;12.326;2024-03-23T07:19:54;9.30;99.90
15997;DHT22;8103;51.340;12.326;2024-03-23T07:22:20;9.30;99.90
15997;DHT22;8103;51.340;12.326;2024-03-23T07:24:46;9.30;99.90
15997;DHT22;8103;51.340;12.326;2024-03-23T07:27:11;9.20;99.90
15997;DHT22;8103;51.340;12.326;2024-03-23T07:29:37;9.10;99.90
15997;DHT22;8103;51.340;12.326;2024-03-23T07:32:03;9.10;99.90
15997;DHT22;8103;51.340;12.326;2024-03-23T07:34:29;9.10;99.90
15997;DHT22;8103;51.340;12.326;2024-03-23T07:36:55;9.00;99.90
15997;DHT22;8103;51.340;12.326;2024-03-23T07:39:20;8.90;99.90
15997;DHT22;8103;51.340;12.326;2024-03-23T07:41:46;8.80;99.90
15997;DHT22;8103;51.340;12.326;2024-03-23T07:44:12;8.60;99.90
15997;DHT22;8103;51.340;12.326;2024-03-23T07:46:38;8.40;99.90
15997;DHT22;8103;51.340;12.326;2024-03-23T07:49:06;8.30;99.90
15997;DHT22;8103;51.340;12.326;2024-03-23T07:51:32;8.10;99.90
15997;DHT22;8103;51.340;12.326;2024-03-23T07:53:59;7.80;99.90
15997;DHT22;8103;51.340;12.326;2024-03-23T07:56:25;7.70;99.90
15997;DHT22;8103;51.340;12.326;2024-03-23T07:58:51;7.50;99.90
15997;DHT22;8103;51.340;12.326;2024-03-23T08:01:17;7.40;99.90
15997;DHT22;8103;51.340;12.326;2024-03-23T08:03:46;7.30;99.90
15997;DHT22;8103;51.340;12.326;2024-03-23T08:06:13;7.20;99.90
15997;DHT22;8103;51.340;12.326;2024-03-23T08:08:40;7.10;99.90
15997;DHT22;8103;51.340;12.326;2024-03-23T08:11:06;7.10;99.90
15997;DHT22;8103;51.340;12.326;2024-03-23T08:13:33;6.90;99.90
15997;DHT22;8103;51.340;12.326;2024-03-23T08:16:00;6.70;99.90
15997;DHT22;8103;51.340;12.326;2024-03-23T08:18:26;6.60;99.90
15997;DHT22;8103;51.340;12.326;2024-03-23T08:20:56;6.60;99.90
15997;DHT22;8103;51.340;12.326;2024-03-23T08:23:24;6.50;99.90
15997;DHT22;8103;51.340;12.326;2024-03-23T08:25:50;6.40;99.90
15997;DHT22;8103;51.340;12.326;2024-03-23T08:28:16;6.40;99.90
15997;DHT22;8103;51.340;12.326;2024-03-23T08:34:30;6.20;99.90
15997;DHT22;8103;51.340;12.326;2024-03-23T08:36:56;6.10;99.90
15997;DHT22;8103;51.340;12.326;2024-03-23T08:39:22;6.00;99.90
15997;DHT22;8103;51.340;12.326;2024-03-23T08:41:47;6.00;99.90
15997;DHT22;8103;51.340;12.326;2024-03-23T08:44:13;6.00;99.90
15997;DHT22;8103;51.340;12.326;2024-03-23T08:46:39;6.00;99.90
15997;DHT22;8103;51.340;12.326;2024-03-23T08:49:05;6.00;99.90
15997;DHT22;8103;51.340;12.326;2024-03-23T08:51:31;6.00;99.90
15997;DHT22;8103;51.340;12.326;2024-03-23T08:53:56;5.90;99.90
15997;DHT22;8103;51.340;12.326;2024-03-23T08:56:22;5.90;99.90
15997;DHT22;8103;51.340;12.326;2024-03-23T08:58:48;5.90;99.90
15997;DHT22;8103;51.340;12.326;2024-03-23T09:01:13;5.90;99.90
15997;DHT22;8103;51.340;12.326;2024-03-23T09:03:39;6.00;99.90
15997;DHT22;8103;51.340;12.326;2024-03-23T09:06:10;6.10;99.90
15997;DHT22;8103;51.340;12.326;2024-03-23T09:08:36;6.20;99.90
15997;DHT22;8103;51.340;12.326;2024-03-23T09:11:10;6.30;99.90
15997;DHT22;8103;51.340;12.326;2024-03-23T09:13:36;6.40;99.90
15997;DHT22;8103;51.340;12.326;2024-03-23T09:16:03;6.40;99.90
15997;DHT22;8103;51.340;12.326;2024-03-23T09:18:32;6.40;99.90
15997;DHT22;8103;51.340;12.326;2024-03-23T09:21:01;6.50;99.90
15997;DHT22;8103;51.340;12.326;2024-03-23T09:23:27;6.40;99.90
15997;DHT22;8103;51.340;12.326;2024-03-23T09:25:52;6.50;99.90
15997;DHT22;8103;51.340;12.326;2024-03-23T09:28:19;6.70;99.90
15997;DHT22;8103;51.340;12.326;2024-03-23T09:30:44;7.00;99.90
15997;DHT22;8103;51.340;12.326;2024-03-23T09:33:11;7.20;99.90
15997;DHT22;8103;51.340;12.326;2024-03-23T09:35:40;7.50;99.90
15997;DHT22;8103;51.340;12.326;2024-03-23T09:38:06;7.60;99.90
15997;DHT22;8103;51.340;12.326;2024-03-23T09:40:33;7.60;99.90
15997;DHT22;8103;51.340;12.326;2024-03-23T09:42:59;7.40;99.90
15997;DHT22;8103;51.340;12.326;2024-03-23T09:45:29;7.20;99.90
15997;DHT22;8103;51.340;12.326;2024-03-23T09:47:55;7.00;99.90
15997;DHT22;8103;51.340;12.326;2024-03-23T09:50:22;6.90;99.90
15997;DHT22;8103;51.340;12.326;2024-03-23T09:52:48;6.70;99.90
15997;DHT22;8103;51.340;12.326;2024-03-23T09:55:14;6.60;99.90
15997;DHT22;8103;51.340;12.326;2024-03-23T09:57:43;6.50;99.90
15997;DHT22;8103;51.340;12.326;2024-03-23T10:00:09;6.60;99.90
15997;DHT22;8103;51.340;12.326;2024-03-23T10:02:35;6.60;99.90
15997;DHT22;8103;51.340;12.326;2024-03-23T10:05:01;6.60;99.90
15997;DHT22;8103;51.340;12.326;2024-03-23T10:07:27;6.50;99.90
15997;DHT22;8103;51.340;12.326;2024-03-23T10:09:54;6.40;99.90
15997;DHT22;8103;51.340;12.326;2024-03-23T10:12:20;6.30;99.90
15997;DHT22;8103;51.340;12.326;2024-03-23T10:14:46;6.10;99.90
15997;DHT22;8103;51.340;12.326;2024-03-23T10:17:19;6.10;99.90
15997;DHT22;8103;51.340;12.326;2024-03-23T10:19:46;6.10;99.90
15997;DHT22;8103;51.340;12.326;2024-03-23T10:22:23;6.10;99.90
15997;DHT22;8103;51.340;12.326;2024-03-23T10:24:50;6.10;99.90
15997;DHT22;8103;51.340;12.326;2024-03-23T10:27:20;6.10;99.90
15997;DHT22;8103;51.340;12.326;2024-03-23T10:29:46;6.10;99.90
15997;DHT22;8103;51.340;12.326;2024-03-23T10:32:13;6.00;99.90
15997;DHT22;8103;51.340;12.326;2024-03-23T10:34:40;5.90;99.90
15997;DHT22;8103;51.340;12.326;2024-03-23T10:37:07;5.80;99.90
15997;DHT22;8103;51.340;12.326;2024-03-23T10:39:35;5.80;99.90
15997;DHT22;8103;51.340;12.326;2024-03-23T10:42:05;5.80;99.90
15997;DHT22;8103;51.340;12.326;2024-03-23T10:44:32;5.90;99.90
15997;DHT22;8103;51.340;12.326;2024-03-23T10:46:58;5.90;99.90
15997;DHT22;8103;51.340;12.326;2024-03-23T10:49:33;5.90;99.90
15997;DHT22;8103;51.340;12.326;2024-03-23T10:52:05;5.90;99.90
15997;DHT22;8103;51.340;12.326;2024-03-23T10:54:32;6.00;99.90
15997;DHT22;8103;51.340;12.326;2024-03-23T10:57:02;5.90;99.90
15997;DHT22;8103;51.340;12.326;2024-03-23T10:59:30;6.00;99.90
15997;DHT22;8103;51.340;12.326;2024-03-23T11:01:57;6.10;99.90
15997;DHT22;8103;51.340;12.326;2024-03-23T11:04:34;6.30;99.90
15997;DHT22;8103;51.340;12.326;2024-03-23T11:07:02;6.50;99.90
15997;DHT22;8103;51.340;12.326;2024-03-23T11:12:27;7.00;99.90
15997;DHT22;8103;51.340;12.326;2024-03-23T11:15:02;7.10;99.90
15997;DHT22;8103;51.340;12.326;2024-03-23T11:17:29;7.10;99.90
15997;DHT22;8103;51.340;12.326;2024-03-23T11:20:07;7.10;99.90
15997;DHT22;8103;51.340;12.326;2024-03-23T11:25:16;7.20;99.90
15997;DHT22;8103;51.340;12.326;2024-03-23T11:27:46;7.40;99.90
15997;DHT22;8103;51.340;12.326;2024-03-23T11:30:12;7.60;99.90
15997;DHT22;8103;51.340;12.326;2024-03-23T11:32:39;7.80;99.90
15997;DHT22;8103;51.340;12.326;2024-03-23T11:35:05;7.80;99.90
15997;DHT22;8103;51.340;12.326;2024-03-23T11:37:31;7.80;99.90
15997;DHT22;8103;51.340;12.326;2024-03-23T11:39:57;7.90;99.90
15997;DHT22;8103;51.340;12.326;2024-03-23T11:42:22;8.00;99.90
15997;DHT22;8103;51.340;12.326;2024-03-23T11:44:48;8.30;99.90
15997;DHT22;8103;51.340;12.326;2024-03-23T11:47:14;9.20;99.90
15997;DHT22;8103;51.340;12.326;2024-03-23T11:49:39;11.00;99.90
15997;DHT22;8103;51.340;12.326;2024-03-23T11:52:08;13.30;97.40
15997;DHT22;8103;51.340;12.326;2024-03-23T11:54:34;15.60;88.70
15997;DHT22;8103;51.340;12.326;2024-03-23T11:57:04;17.10;80.40
15997;DHT22;8103;51.340;12.326;2024-03-23T12:01:59;20.50;60.80
15997;DHT22;8103;51.340;12.326;2024-03-23T12:04:27;22.50;54.40
15997;DHT22;8103;51.340;12.326;2024-03-23T12:07:15;23.70;49.60
15997;DHT22;8103;51.340;12.326;2024-03-23T12:09:41;25.20;45.50
15997;DHT22;8103;51.340;12.326;2024-03-23T12:12:13;26.30;41.30
15997;DHT22;8103;51.340;12.326;2024-03-23T12:15:04;26.50;38.50
15997;DHT22;8103;51.340;12.326;2024-03-23T12:17:31;26.80;38.10
15997;DHT22;8103;51.340;12.326;2024-03-23T12:19:58;26.90;36.40
15997;DHT22;8103;51.340;12.326;2024-03-23T12:22:24;26.20;36.10
15997;DHT22;8103;51.340;12.326;2024-03-23T12:24:50;26.50;37.30
15997;DHT22;8103;51.340;12.326;2024-03-23T12:27:16;27.30;35.90
15997;DHT22;8103;51.340;12.326;2024-03-23T12:29:42;27.90;35.10
15997;DHT22;8103;51.340;12.326;2024-03-23T12:32:13;28.00;34.20
15997;DHT22;8103;51.340;12.326;2024-03-23T12:34:39;27.70;33.40
15997;DHT22;8103;51.340;12.326;2024-03-23T12:37:05;27.30;33.90
15997;DHT22;8103;51.340;12.326;2024-03-23T12:39:33;26.50;34.50
15997;DHT22;8103;51.340;12.326;2024-03-23T12:42:01;25.10;36.30
15997;DHT22;8103;51.340;12.326;2024-03-23T12:44:27;23.00;39.10
15997;DHT22;8103;51.340;12.326;2024-03-23T12:46:53;21.70;42.40
15997;DHT22;8103;51.340;12.326;2024-03-23T12:49:18;21.80;44.10
15997;DHT22;8103;51.340;12.326;2024-03-23T12:51:54;22.70;42.90
15997;DHT22;8103;51.340;12.326;2024-03-23T12:54:22;23.60;40.40
15997;DHT22;8103;51.340;12.326;2024-03-23T12:56:47;24.40;40.00
15997;DHT22;8103;51.340;12.326;2024-03-23T12:59:13;25.30;39.30
15997;DHT22;8103;51.340;12.326;2024-03-23T13:01:39;26.20;37.30
15997;DHT22;8103;51.340;12.326;2024-03-23T13:04:06;26.50;35.70
15997;DHT22;8103;51.340;12.326;2024-03-23T13:06:31;26.20;34.90
15997;DHT22;8103;51.340;12.326;2024-03-23T13:09:01;26.20;35.60
15997;DHT22;8103;51.340;12.326;2024-03-23T13:11:27;26.70;34.60
15997;DHT22;8103;51.340;12.326;2024-03-23T13:13:54;27.20;33.60
15997;DHT22;8103;51.340;12.326;2024-03-23T13:16:20;26.60;33.30
15997;DHT22;8103;51.340;12.326;2024-03-23T13:18:46;24.50;35.10
15997;DHT22;8103;51.340;12.326;2024-03-23T13:21:12;23.30;38.40
15997;DHT22;8103;51.340;12.326;2024-03-23T13:23:38;22.60;39.70
15997;DHT22;8103;51.340;12.326;2024-03-23T13:26:06;23.30;39.10
15997;DHT22;8103;51.340;12.326;2024-03-23T13:28:33;22.80;38.50
15997;DHT22;8103;51.340;12.326;2024-03-23T13:30:59;22.80;38.40
15997;DHT22;8103;51.340;12.326;2024-03-23T13:33:31;24.10;36.50
15997;DHT22;8103;51.340;12.326;2024-03-23T13:36:00;25.80;34.20
15997;DHT22;8103;51.340;12.326;2024-03-23T13:38:26;27.10;31.70
15997;DHT22;8103;51.340;12.326;2024-03-23T13:41:01;27.30;31.60
15997;DHT22;8103;51.340;12.326;2024-03-23T13:43:28;27.90;31.20
15997;DHT22;8103;51.340;12.326;2024-03-23T13:45:55;26.50;30.80
15997;DHT22;8103;51.340;12.326;2024-03-23T13:48:23;23.90;34.00
15997;DHT22;8103;51.340;12.326;2024-03-23T13:51:03;21.40;37.20
15997;DHT22;8103;51.340;12.326;2024-03-23T13:53:29;18.80;42.50
15997;DHT22;8103;51.340;12.326;2024-03-23T13:55:55;16.90;47.60
15997;DHT22;8103;51.340;12.326;2024-03-23T13:58:21;15.40;56.10
15997;DHT22;8103;51.340;12.326;2024-03-23T14:00:47;14.10;64.40
15997;DHT22;8103;51.340;12.326;2024-03-23T14:03:14;13.00;71.80
15997;DHT22;8103;51.340;12.326;2024-03-23T14:09:26;11.50;77.40
15997;DHT22;8103;51.340;12.326;2024-03-23T14:11:52;14.30;73.70
15997;DHT22;8103;51.340;12.326;2024-03-23T14:14:18;16.00;63.90
15997;DHT22;8103;51.340;12.326;2024-03-23T14:16:43;17.60;61.30
15997;DHT22;8103;51.340;12.326;2024-03-23T14:19:09;19.00;56.40
15997;DHT22;8103;51.340;12.326;2024-03-23T14:21:35;20.90;52.30
15997;DHT22;8103;51.340;12.326;2024-03-23T14:24:01;22.60;48.10
15997;DHT22;8103;51.340;12.326;2024-03-23T14:26:28;23.50;44.40
15997;DHT22;8103;51.340;12.326;2024-03-23T14:28:53;22.60;43.80
15997;DHT22;8103;51.340;12.326;2024-03-23T14:31:19;20.90;47.20
15997;DHT22;8103;51.340;12.326;2024-03-23T14:33:46;18.20;49.60
15997;DHT22;8103;51.340;12.326;2024-03-23T14:36:16;16.10;54.70
15997;DHT22;8103;51.340;12.326;2024-03-23T14:38:46;14.40;59.40
15997;DHT22;8103;51.340;12.326;2024-03-23T14:41:12;13.10;63.50
15997;DHT22;8103;51.340;12.326;2024-03-23T14:43:38;12.10;68.30
15997;DHT22;8103;51.340;12.326;2024-03-23T14:46:07;11.30;73.40
15997;DHT22;8103;51.340;12.326;2024-03-23T14:48:34;10.60;77.10
15997;DHT22;8103;51.340;12.326;2024-03-23T14:51:00;10.10;81.70
15997;DHT22;8103;51.340;12.326;2024-03-23T14:53:26;9.60;87.80
15997;DHT22;8103;51.340;12.326;2024-03-23T14:55:56;9.30;91.10
15997;DHT22;8103;51.340;12.326;2024-03-23T14:58:22;9.00;91.90
15997;DHT22;8103;51.340;12.326;2024-03-23T15:00:51;8.80;93.70
15997;DHT22;8103;51.340;12.326;2024-03-23T15:03:19;8.60;94.70
15997;DHT22;8103;51.340;12.326;2024-03-23T15:05:52;8.40;96.30
15997;DHT22;8103;51.340;12.326;2024-03-23T15:08:18;8.20;97.20
15997;DHT22;8103;51.340;12.326;2024-03-23T15:10:45;8.10;97.70
15997;DHT22;8103;51.340;12.326;2024-03-23T15:13:11;7.80;99.90
15997;DHT22;8103;51.340;12.326;2024-03-23T15:15:40;7.70;99.90
15997;DHT22;8103;51.340;12.326;2024-03-23T15:18:12;7.60;99.90
15997;DHT22;8103;51.340;12.326;2024-03-23T15:20:39;7.80;99.90
15997;DHT22;8103;51.340;12.326;2024-03-23T15:23:05;7.90;99.90
15997;DHT22;8103;51.340;12.326;2024-03-23T15:25:31;7.90;99.90
15997;DHT22;8103;51.340;12.326;2024-03-23T15:27:58;7.80;99.90
15997;DHT22;8103;51.340;12.326;2024-03-23T15:30:25;7.70;99.90
15997;DHT22;8103;51.340;12.326;2024-03-23T15:32:50;7.70;99.90
15997;DHT22;8103;51.340;12.326;2024-03-23T15:35:16;7.70;99.90
15997;DHT22;8103;51.340;12.326;2024-03-23T15:37:42;7.80;99.90
15997;DHT22;8103;51.340;12.326;2024-03-23T15:40:09;7.90;99.90
15997;DHT22;8103;51.340;12.326;2024-03-23T15:42:35;8.00;99.90
15997;DHT22;8103;51.340;12.326;2024-03-23T15:45:01;8.10;99.90
15997;DHT22;8103;51.340;12.326;2024-03-23T15:47:29;8.10;99.90
15997;DHT22;8103;51.340;12.326;2024-03-23T15:49:58;8.30;99.90
15997;DHT22;8103;51.340;12.326;2024-03-23T15:52:23;8.30;99.90
15997;DHT22;8103;51.340;12.326;2024-03-23T15:54:49;8.30;99.90
15997;DHT22;8103;51.340;12.326;2024-03-23T15:57:15;8.30;99.90
15997;DHT22;8103;51.340;12.326;2024-03-23T15:59:41;8.30;99.90
15997;DHT22;8103;51.340;12.326;2024-03-23T16:02:07;8.40;99.90
15997;DHT22;8103;51.340;12.326;2024-03-23T16:04:33;8.30;99.90
15997;DHT22;8103;51.340;12.326;2024-03-23T16:06:58;8.40;99.90
15997;DHT22;8103;51.340;12.326;2024-03-23T16:09:24;8.30;99.90
15997;DHT22;8103;51.340;12.326;2024-03-23T16:11:51;8.30;99.90
15997;DHT22;8103;51.340;12.326;2024-03-23T16:14:17;8.30;99.90
15997;DHT22;8103;51.340;12.326;2024-03-23T16:16:42;8.30;99.90
15997;DHT22;8103;51.340;12.326;2024-03-23T16:19:08;8.30;99.90
15997;DHT22;8103;51.340;12.326;2024-03-23T16:21:34;8.30;99.90
15997;DHT22;8103;51.340;12.326;2024-03-23T16:24:00;8.20;99.90
15997;DHT22;8103;51.340;12.326;2024-03-23T16:26:25;8.20;99.90
15997;DHT22;8103;51.340;12.326;2024-03-23T16:28:51;8.20;99.90
15997;DHT22;8103;51.340;12.326;2024-03-23T16:31:17;8.10;99.90
15997;DHT22;8103;51.340;12.326;2024-03-23T16:33:42;8.10;99.90
15997;DHT22;8103;51.340;12.326;2024-03-23T16:36:10;8.00;99.90
15997;DHT22;8103;51.340;12.326;2024-03-23T16:38:38;8.00;99.90
15997;DHT22;8103;51.340;12.326;2024-03-23T16:41:12;7.90;99.90
15997;DHT22;8103;51.340;12.326;2024-03-23T16:43:41;7.80;99.90
15997;DHT22;8103;51.340;12.326;2024-03-23T16:46:12;7.80;99.90
15997;DHT22;8103;51.340;12.326;2024-03-23T16:48:38;7.70;99.90